Time;durP1;ratioP1;P1;durP2;ratioP2;P2;SDS_P1;SDS_P2;PMS_P1;PMS_P2;Temp;Humidity;BMP_temperature;BMP_pressure;BME280_temperature;BME280_humidity;BME280_pressure;Samples;Min_cycle;Max_cycle;Signal;HPM_P1;HPM_P2
2022/07/20 00:01:52;;;;;;;1.30;0.90;;;21.70;93.90;;;;;;4828347;29;20045;-84
2022/07/20 00:04:17;;;;;;;2.55;1.10;;;21.60;94.90;;;;;;4829338;29;20062;-85
2022/07/20 00:06:43;;;;;;;2.17;1.20;;;21.50;95.30;;;;;;4823339;29;20411;-84
2022/07/20 00:12:11;;;;;;;4.90;1.30;;;21.40;96.30;;;;;;4838623;29;20037;-83
2022/07/20 00:14:36;;;;;;;2.97;0.93;;;21.40;94.60;;;;;;4839005;29;20551;-84
2022/07/20 00:17:02;;;;;;;1.95;1.00;;;21.30;95.20;;;;;;4838121;29;20499;-85
2022/07/20 00:19:28;;;;;;;1.98;0.90;;;21.30;94.10;;;;;;4839045;29;20559;-85
2022/07/20 00:21:53;;;;;;;1.83;1.00;;;21.30;94.60;;;;;;4838577;29;20443;-83
2022/07/20 00:24:19;;;;;;;1.42;1.00;;;21.30;95.20;;;;;;4839143;29;20160;-85
2022/07/20 00:26:45;;;;;;;1.30;0.90;;;21.10;95.40;;;;;;4823662;29;20050;-83
2022/07/20 00:29:10;;;;;;;2.50;1.05;;;21.10;94.30;;;;;;4838548;29;20046;-84
2022/07/20 00:31:36;;;;;;;3.17;1.00;;;21.10;95.90;;;;;;4838793;29;20050;-85
2022/07/20 00:34:02;;;;;;;1.33;1.00;;;21.10;96.10;;;;;;4838151;29;20054;-84
2022/07/20 00:36:28;;;;;;;2.17;1.10;;;21.00;96.40;;;;;;4838971;29;20448;-85
2022/07/20 00:38:54;;;;;;;3.50;1.10;;;21.00;96.20;;;;;;4838788;29;20143;-83
2022/07/20 00:41:19;;;;;;;1.50;1.00;;;20.90;96.50;;;;;;4838123;29;20050;-86
2022/07/20 00:43:59;;;;;;;2.45;0.95;;;20.90;97.00;;;;;;4838733;29;20050;-83
2022/07/20 00:46:26;;;;;;;2.53;1.00;;;20.90;96.40;;;;;;4829063;29;20063;-83
2022/07/20 00:48:51;;;;;;;2.50;1.40;;;20.80;96.00;;;;;;4823097;29;20051;-84
2022/07/20 00:51:17;;;;;;;0.82;0.63;;;20.80;95.90;;;;;;4826776;29;20399;-84
2022/07/20 00:53:44;;;;;;;1.83;0.90;;;20.80;94.40;;;;;;4822083;29;20510;-84
2022/07/20 00:56:11;;;;;;;1.70;0.85;;;20.80;95.00;;;;;;4822764;29;20067;-85
2022/07/20 00:58:37;;;;;;;3.33;0.93;;;20.70;94.90;;;;;;4823020;29;20487;-84
2022/07/20 01:01:02;;;;;;;1.40;0.80;;;20.70;95.10;;;;;;4822929;29;20081;-82
2022/07/20 01:03:28;;;;;;;2.00;1.00;;;20.70;94.70;;;;;;4828592;29;20054;-84
2022/07/20 01:05:54;;;;;;;3.28;1.00;;;20.60;94.90;;;;;;4829676;29;20038;-85
2022/07/20 01:08:20;;;;;;;1.58;0.90;;;20.60;95.10;;;;;;4825909;29;20046;-84
2022/07/20 01:10:46;;;;;;;1.45;0.95;;;20.60;95.10;;;;;;4824672;29;20491;-85
2022/07/20 01:13:12;;;;;;;1.75;0.80;;;20.50;94.40;;;;;;4826471;29;20130;-85
2022/07/20 01:15:38;;;;;;;1.52;0.90;;;20.50;95.50;;;;;;4824982;29;20113;-84
2022/07/20 01:18:04;;;;;;;3.10;0.80;;;20.50;95.10;;;;;;4828222;29;20054;-85
2022/07/20 01:20:30;;;;;;;1.83;0.85;;;20.50;95.30;;;;;;4833528;29;20099;-85
2022/07/20 01:22:56;;;;;;;1.63;0.70;;;20.40;95.20;;;;;;4826306;29;20129;-86
2022/07/20 01:25:22;;;;;;;3.88;1.23;;;20.40;95.20;;;;;;4825803;29;20126;-85
2022/07/20 01:27:48;;;;;;;2.08;0.90;;;20.30;95.80;;;;;;4825777;29;20051;-85
2022/07/20 01:30:14;;;;;;;1.50;1.00;;;20.40;96.20;;;;;;4825403;29;20516;-85
2022/07/20 01:32:39;;;;;;;1.83;0.90;;;20.30;95.30;;;;;;4826086;29;20035;-84
2022/07/20 01:35:06;;;;;;;2.15;0.98;;;20.30;95.10;;;;;;4825209;29;20054;-86
2022/07/20 01:37:32;;;;;;;1.38;0.70;;;20.20;95.40;;;;;;4825632;29;20386;-86
2022/07/20 01:39:58;;;;;;;2.25;0.90;;;20.20;95.50;;;;;;4831614;29;20097;-85
2022/07/20 01:42:24;;;;;;;1.73;0.93;;;20.20;95.30;;;;;;4826565;29;20500;-86
2022/07/20 01:44:50;;;;;;;2.92;0.70;;;20.20;96.00;;;;;;4825498;29;20042;-86
2022/07/20 01:47:15;;;;;;;1.27;0.98;;;20.30;95.10;;;;;;4825676;29;20126;-85
2022/07/20 01:49:41;;;;;;;1.30;0.90;;;20.30;94.70;;;;;;4825322;29;20385;-86
2022/07/20 01:52:06;;;;;;;2.22;1.10;;;20.10;94.40;;;;;;4825928;29;20201;-86
2022/07/20 01:54:32;;;;;;;1.30;0.80;;;20.10;94.30;;;;;;4830183;29;20050;-84
2022/07/20 01:56:58;;;;;;;1.23;0.75;;;20.10;95.40;;;;;;4830834;29;20038;-84
2022/07/20 01:59:23;;;;;;;1.90;0.80;;;20.10;96.10;;;;;;4825027;29;20500;-84
2022/07/20 02:01:50;;;;;;;1.20;0.73;;;20.00;95.70;;;;;;4825661;29;20050;-84
2022/07/20 02:04:15;;;;;;;1.90;0.90;;;20.10;95.60;;;;;;4823620;29;20054;-83
2022/07/20 02:06:41;;;;;;;3.00;0.80;;;20.00;96.10;;;;;;4825003;29;20084;-85
2022/07/20 02:09:06;;;;;;;1.20;0.80;;;19.90;96.90;;;;;;4825097;29;20046;-83
2022/07/20 02:11:32;;;;;;;1.40;0.70;;;19.90;96.80;;;;;;4825109;29;20050;-85
2022/07/20 02:13:58;;;;;;;2.70;1.60;;;19.90;96.50;;;;;;4833175;29;20049;-83
2022/07/20 02:16:23;;;;;;;1.48;0.77;;;19.90;97.00;;;;;;4826771;29;20057;-83
2022/07/20 02:18:57;;;;;;;6.03;1.15;;;19.80;97.60;;;;;;4834932;29;20057;-83
2022/07/20 02:21:24;;;;;;;2.22;0.85;;;19.80;97.30;;;;;;4827428;29;20505;-83
2022/07/20 02:23:50;;;;;;;1.67;1.13;;;19.70;97.60;;;;;;4823959;29;20046;-84
2022/07/20 02:26:16;;;;;;;1.30;0.82;;;19.70;96.50;;;;;;4824843;29;20034;-83
2022/07/20 02:28:42;;;;;;;1.08;0.73;;;19.70;96.30;;;;;;4825278;29;20050;-84
2022/07/20 02:31:08;;;;;;;1.27;0.80;;;19.60;96.60;;;;;;4834794;29;20050;-83
2022/07/20 02:33:33;;;;;;;1.30;0.80;;;19.60;96.60;;;;;;4824999;29;20093;-83
2022/07/20 02:36:00;;;;;;;2.50;0.70;;;19.60;96.30;;;;;;4824518;29;20137;-83
2022/07/20 02:38:26;;;;;;;1.38;0.90;;;19.60;95.80;;;;;;4824750;29;20049;-83
2022/07/20 02:40:52;;;;;;;1.20;0.90;;;19.60;96.30;;;;;;4824561;29;20396;-83
2022/07/20 02:43:18;;;;;;;1.83;0.80;;;19.60;96.10;;;;;;4825102;29;20046;-83
2022/07/20 02:45:43;;;;;;;1.88;0.73;;;19.50;96.40;;;;;;4830301;29;20208;-83
2022/07/20 02:48:09;;;;;;;2.05;0.90;;;19.50;96.30;;;;;;4824494;29;20074;-84
2022/07/20 02:50:38;;;;;;;1.95;0.70;;;19.40;96.00;;;;;;4824444;29;20061;-84
2022/07/20 02:53:05;;;;;;;2.05;0.68;;;19.50;96.30;;;;;;4824984;29;20056;-84
2022/07/20 02:55:31;;;;;;;2.65;0.90;;;19.30;95.90;;;;;;4823387;29;20085;-84
2022/07/20 02:57:57;;;;;;;2.10;0.90;;;19.40;96.10;;;;;;4824332;29;20042;-84
2022/07/20 03:00:22;;;;;;;1.00;0.70;;;19.40;95.90;;;;;;4823191;29;20058;-86
2022/07/20 03:02:48;;;;;;;1.67;1.00;;;19.40;96.20;;;;;;4824723;29;20133;-83
2022/07/20 03:05:14;;;;;;;1.42;0.80;;;19.40;96.10;;;;;;4823019;29;20408;-83
2022/07/20 03:07:40;;;;;;;1.67;0.70;;;19.30;96.10;;;;;;4824098;29;20058;-82
2022/07/20 03:10:06;;;;;;;2.03;0.88;;;19.30;96.00;;;;;;4824603;29;20048;-84
2022/07/20 03:12:32;;;;;;;2.63;1.00;;;19.30;96.80;;;;;;4824882;29;20061;-83
2022/07/20 03:14:58;;;;;;;2.90;0.90;;;19.30;96.70;;;;;;4824083;29;20046;-84
2022/07/20 03:17:24;;;;;;;2.13;0.68;;;19.20;96.90;;;;;;4824111;29;20046;-85
2022/07/20 03:19:50;;;;;;;2.00;0.73;;;19.20;96.10;;;;;;4823702;29;20050;-84
2022/07/20 03:22:16;;;;;;;2.15;0.60;;;19.20;96.30;;;;;;4824776;29;20376;-85
2022/07/20 03:24:41;;;;;;;1.00;0.68;;;19.20;96.10;;;;;;4824143;29;20469;-86
2022/07/20 03:27:07;;;;;;;2.38;1.00;;;19.20;97.00;;;;;;4831241;29;20045;-84
2022/07/20 03:29:33;;;;;;;1.77;0.70;;;19.10;97.20;;;;;;4822483;29;20058;-86
2022/07/20 03:31:59;;;;;;;3.03;1.00;;;19.10;96.80;;;;;;4824206;29;20049;-86
2022/07/20 03:34:24;;;;;;;1.63;1.00;;;19.10;96.90;;;;;;4822403;29;20058;-85
2022/07/20 03:36:50;;;;;;;1.70;0.70;;;19.10;96.70;;;;;;4824996;29;20058;-85
2022/07/20 03:39:16;;;;;;;1.52;0.70;;;19.10;97.10;;;;;;4830757;29;20039;-87
2022/07/20 03:41:42;;;;;;;1.15;0.80;;;19.10;96.60;;;;;;4823738;29;20053;-85
2022/07/20 03:44:08;;;;;;;2.10;0.80;;;19.00;97.00;;;;;;4822940;29;20046;-86
2022/07/20 03:46:34;;;;;;;3.78;0.93;;;19.00;97.40;;;;;;4823708;29;20057;-87
2022/07/20 03:49:00;;;;;;;1.52;0.77;;;19.00;96.70;;;;;;4823703;29;20050;-87
2022/07/20 03:51:25;;;;;;;1.88;0.95;;;18.90;97.10;;;;;;4824897;29;20503;-85
2022/07/20 03:53:51;;;;;;;0.80;0.70;;;18.90;96.90;;;;;;4827417;29;20137;-86
2022/07/20 03:56:17;;;;;;;1.02;0.70;;;18.90;96.70;;;;;;4831018;29;20057;-87
2022/07/20 03:58:43;;;;;;;1.65;0.80;;;19.00;96.90;;;;;;4823495;29;20077;-87
2022/07/20 04:01:09;;;;;;;1.33;0.90;;;18.90;97.30;;;;;;4823642;29;20065;-86
2022/07/20 04:03:34;;;;;;;2.58;0.73;;;19.00;97.00;;;;;;4824118;29;20050;-86
2022/07/20 04:06:01;;;;;;;1.10;0.75;;;18.90;97.20;;;;;;4823292;29;20081;-86
2022/07/20 04:08:26;;;;;;;2.30;0.90;;;18.90;97.50;;;;;;4823688;29;20111;-85
2022/07/20 04:10:52;;;;;;;1.67;0.80;;;18.90;97.00;;;;;;4827953;29;20038;-87
2022/07/20 04:13:18;;;;;;;1.98;0.80;;;18.90;97.10;;;;;;4835890;29;20070;-86
2022/07/20 04:15:43;;;;;;;1.08;0.80;;;18.90;96.90;;;;;;4830793;29;20054;-87
2022/07/20 04:18:09;;;;;;;1.65;0.98;;;18.90;96.90;;;;;;4831898;29;20460;-83
2022/07/20 04:20:35;;;;;;;2.08;0.80;;;18.90;96.70;;;;;;4823284;29;20050;-84
2022/07/20 04:23:00;;;;;;;2.03;0.90;;;18.90;97.00;;;;;;4823435;29;20046;-85
2022/07/20 04:25:26;;;;;;;1.70;0.80;;;19.00;97.60;;;;;;4823861;29;20042;-84
2022/07/20 04:27:52;;;;;;;0.90;0.50;;;18.90;97.20;;;;;;4825388;29;20084;-86
2022/07/20 04:30:18;;;;;;;1.50;0.68;;;19.00;97.40;;;;;;4824750;29;20057;-87
2022/07/20 04:32:44;;;;;;;2.88;0.80;;;19.00;97.40;;;;;;4824497;29;20377;-86
2022/07/20 04:35:11;;;;;;;2.90;1.00;;;19.00;97.20;;;;;;4853923;29;20046;-86
2022/07/20 04:37:37;;;;;;;2.45;0.80;;;19.00;97.10;;;;;;4823843;29;20042;-87
2022/07/20 04:40:04;;;;;;;1.40;0.77;;;19.10;97.20;;;;;;4822999;29;20058;-85
2022/07/20 04:42:31;;;;;;;1.48;0.73;;;19.10;97.00;;;;;;4836871;29;20053;-85
2022/07/20 04:44:57;;;;;;;1.10;0.52;;;19.10;97.30;;;;;;4830496;29;20043;-85
2022/07/20 04:47:22;;;;;;;1.73;0.68;;;19.20;96.90;;;;;;4826889;29;20050;-83
2022/07/20 04:49:48;;;;;;;1.10;0.70;;;19.20;97.00;;;;;;4826602;29;20046;-85
2022/07/20 04:52:14;;;;;;;1.73;0.70;;;19.30;97.00;;;;;;4824859;29;20121;-85
2022/07/20 04:54:41;;;;;;;1.65;0.70;;;19.30;97.00;;;;;;4826152;29;20046;-84
2022/07/20 04:57:07;;;;;;;0.98;0.70;;;19.40;97.20;;;;;;4826413;29;20163;-84
2022/07/20 04:59:33;;;;;;;1.38;0.50;;;19.40;97.60;;;;;;4831211;29;20550;-83
2022/07/20 05:01:58;;;;;;;0.95;0.60;;;19.50;97.60;;;;;;4832116;29;20042;-84
2022/07/20 05:04:24;;;;;;;0.70;0.60;;;19.50;98.20;;;;;;4825904;29;20480;-84
2022/07/20 05:06:50;;;;;;;1.45;0.73;;;19.60;98.10;;;;;;4834146;29;20054;-84
2022/07/20 05:09:16;;;;;;;1.92;1.02;;;19.60;98.00;;;;;;4825926;29;20042;-83
2022/07/20 05:11:42;;;;;;;1.15;0.70;;;19.70;98.20;;;;;;4825678;29;20470;-84
2022/07/20 05:14:10;;;;;;;1.40;0.77;;;19.80;98.40;;;;;;4824761;29;20046;-83
2022/07/20 05:16:37;;;;;;;1.83;0.85;;;19.90;98.30;;;;;;4825766;29;20055;-83
2022/07/20 05:19:03;;;;;;;1.45;0.65;;;20.00;98.30;;;;;;4839830;29;20046;-83
2022/07/20 05:21:28;;;;;;;1.58;0.80;;;20.00;98.20;;;;;;4828602;29;20080;-86
2022/07/20 05:23:54;;;;;;;3.33;0.98;;;20.10;98.40;;;;;;4836836;29;20159;-84
2022/07/20 05:26:20;;;;;;;1.17;0.77;;;20.20;98.30;;;;;;4825726;29;20121;-83
2022/07/20 05:28:46;;;;;;;0.80;0.52;;;20.30;98.40;;;;;;4824980;29;20563;-84
2022/07/20 05:31:14;;;;;;;0.82;0.70;;;20.40;98.60;;;;;;4825549;29;20049;-84
2022/07/20 05:33:41;;;;;;;1.80;0.75;;;20.50;99.20;;;;;;4825643;29;20055;-83
2022/07/20 05:36:08;;;;;;;2.00;0.80;;;20.60;99.80;;;;;;4825827;29;20100;-83
2022/07/20 05:38:33;;;;;;;3.33;0.73;;;20.70;99.90;;;;;;4826056;29;20065;-85
2022/07/20 05:40:59;;;;;;;1.83;0.90;;;20.90;99.90;;;;;;4825399;29;20038;-83
2022/07/20 05:43:25;;;;;;;1.02;0.60;;;21.00;99.70;;;;;;4833026;29;20099;-84
2022/07/20 05:45:50;;;;;;;1.45;0.85;;;21.10;99.90;;;;;;4824320;29;20043;-86
2022/07/20 05:48:16;;;;;;;0.90;0.70;;;21.20;99.60;;;;;;4824730;29;20137;-83
2022/07/20 05:50:43;;;;;;;2.15;0.60;;;21.40;99.90;;;;;;4825259;29;20039;-83
2022/07/20 05:53:10;;;;;;;1.70;0.70;;;21.50;99.40;;;;;;4825001;29;20119;-84
2022/07/20 05:55:36;;;;;;;0.63;0.43;;;21.60;99.20;;;;;;4862064;29;20077;-84
2022/07/20 05:58:03;;;;;;;1.38;0.65;;;21.80;99.40;;;;;;4825733;29;20046;-84
2022/07/20 06:00:30;;;;;;;2.05;0.85;;;21.90;99.20;;;;;;4825105;29;20408;-85
2022/07/20 06:02:56;;;;;;;0.80;0.70;;;22.10;99.20;;;;;;4825344;29;20043;-84
2022/07/20 06:05:21;;;;;;;2.67;0.70;;;22.20;99.50;;;;;;4824135;29;20104;-85
2022/07/20 06:07:47;;;;;;;0.80;0.55;;;22.40;98.80;;;;;;4825404;29;20090;-83
2022/07/20 06:10:13;;;;;;;0.95;0.70;;;22.50;98.80;;;;;;4825000;29;20050;-84
2022/07/20 06:12:39;;;;;;;1.50;0.60;;;22.60;98.90;;;;;;4838703;29;20381;-85
2022/07/20 06:15:05;;;;;;;0.80;0.57;;;22.80;98.80;;;;;;4836155;29;20115;-84
2022/07/20 06:17:36;;;;;;;0.70;0.50;;;22.90;99.00;;;;;;4830065;29;20046;-85
2022/07/20 06:20:13;;;;;;;1.23;0.60;;;23.10;99.00;;;;;;4836737;29;20049;-86
2022/07/20 06:22:40;;;;;;;0.95;0.68;;;23.30;98.80;;;;;;4824713;29;20129;-85
2022/07/20 06:25:08;;;;;;;0.80;0.63;;;23.40;98.30;;;;;;4831114;29;20054;-85
2022/07/20 06:27:34;;;;;;;2.63;0.77;;;23.60;97.70;;;;;;4824401;29;20053;-85
2022/07/20 06:30:00;;;;;;;1.45;0.70;;;23.70;96.90;;;;;;4823956;29;20062;-86
2022/07/20 06:32:26;;;;;;;1.13;0.80;;;23.90;97.30;;;;;;4827385;29;20046;-86
2022/07/20 06:34:52;;;;;;;1.92;0.80;;;24.00;97.60;;;;;;4832527;29;20058;-87
2022/07/20 06:37:19;;;;;;;1.70;0.85;;;24.20;96.90;;;;;;4827651;29;20054;-89
2022/07/20 06:39:45;;;;;;;1.25;0.80;;;24.40;96.40;;;;;;4823894;29;20069;-85
2022/07/20 06:42:11;;;;;;;2.45;0.80;;;24.50;96.40;;;;;;4823289;29;20157;-87
2022/07/20 06:44:36;;;;;;;1.33;0.90;;;24.60;96.80;;;;;;4824655;29;20503;-87
2022/07/20 06:47:03;;;;;;;2.13;0.80;;;24.80;96.40;;;;;;4825166;29;20069;-85
2022/07/20 06:49:28;;;;;;;2.08;1.20;;;24.90;96.30;;;;;;4837165;29;20058;-85
2022/07/20 06:51:54;;;;;;;3.00;1.63;;;25.10;96.10;;;;;;4831314;29;20075;-86
2022/07/20 06:54:20;;;;;;;2.83;0.90;;;25.20;96.00;;;;;;4824449;29;20042;-87
2022/07/20 06:56:46;;;;;;;1.52;0.88;;;25.40;95.90;;;;;;4824571;29;20057;-85
2022/07/20 06:59:12;;;;;;;1.80;1.05;;;25.50;96.50;;;;;;4823902;29;20050;-86
2022/07/20 07:01:38;;;;;;;3.45;0.90;;;25.70;96.30;;;;;;4824377;29;20504;-84
2022/07/20 07:04:04;;;;;;;4.15;1.08;;;25.90;95.30;;;;;;4821930;29;20060;-86
2022/07/20 07:06:30;;;;;;;3.05;1.30;;;26.10;95.30;;;;;;4832938;29;20049;-84
2022/07/20 07:08:57;;;;;;;1.52;1.00;;;26.20;94.20;;;;;;4823785;29;20148;-87
2022/07/20 07:11:23;;;;;;;1.77;1.33;;;26.40;94.90;;;;;;4824151;29;20054;-86
2022/07/20 07:13:49;;;;;;;2.05;1.08;;;26.60;93.50;;;;;;4822869;29;20051;-85
2022/07/20 07:16:14;;;;;;;6.18;1.60;;;26.80;91.50;;;;;;4822925;29;20055;-88
2022/07/20 07:18:40;;;;;;;2.42;1.48;;;27.00;91.20;;;;;;4824436;29;20050;-86
2022/07/20 07:21:06;;;;;;;2.40;1.67;;;27.20;84.60;;;;;;4830914;29;20038;-85
2022/07/20 07:23:31;;;;;;;3.55;1.92;;;27.30;84.60;;;;;;4822713;29;20054;-85
2022/07/20 07:25:57;;;;;;;3.33;1.08;;;27.40;86.40;;;;;;4832248;29;20436;-86
2022/07/20 07:28:23;;;;;;;2.13;1.30;;;27.60;83.50;;;;;;4830032;29;20054;-85
2022/07/20 07:30:50;;;;;;;1.98;1.38;;;27.70;85.20;;;;;;4823486;29;20046;-86
2022/07/20 07:33:17;;;;;;;2.00;1.30;;;27.90;83.10;;;;;;4831628;29;20054;-85
2022/07/20 07:35:43;;;;;;;2.50;1.30;;;28.10;85.20;;;;;;4833382;29;20073;-84
2022/07/20 07:38:09;;;;;;;1.80;1.42;;;28.20;84.70;;;;;;4823793;29;20065;-87
2022/07/20 07:40:35;;;;;;;6.82;2.35;;;28.40;83.50;;;;;;4829577;29;20060;-89
2022/07/20 07:43:01;;;;;;;4.95;1.92;;;28.50;81.80;;;;;;4833232;29;20049;-85
2022/07/20 07:45:27;;;;;;;5.85;2.08;;;28.60;77.80;;;;;;4824514;29;20137;-87
2022/07/20 07:47:52;;;;;;;5.38;1.98;;;28.80;77.40;;;;;;4823991;29;20046;-85
2022/07/20 07:50:18;;;;;;;4.63;2.03;;;28.90;78.10;;;;;;4825007;29;20058;-88
2022/07/20 07:52:44;;;;;;;3.65;2.17;;;28.90;76.30;;;;;;4823935;29;20039;-88
2022/07/20 07:55:10;;;;;;;9.48;2.30;;;29.00;78.30;;;;;;4823634;29;20400;-86
2022/07/20 07:57:36;;;;;;;3.40;2.10;;;29.00;77.50;;;;;;4823032;29;20403;-85
2022/07/20 08:00:04;;;;;;;2.50;1.95;;;29.10;77.90;;;;;;4836295;29;20044;-86
2022/07/20 08:02:30;;;;;;;3.72;2.17;;;29.20;77.40;;;;;;4831454;29;20050;-87
2022/07/20 08:04:56;;;;;;;6.32;2.17;;;29.30;78.40;;;;;;4826885;29;20046;-86
2022/07/20 08:07:21;;;;;;;8.55;2.70;;;29.40;77.50;;;;;;4823694;29;20130;-84
2022/07/20 08:09:47;;;;;;;4.13;2.05;;;29.40;77.00;;;;;;4824085;29;20050;-85
2022/07/20 08:12:13;;;;;;;3.67;2.30;;;29.60;81.40;;;;;;4830230;29;20054;-86
2022/07/20 08:14:39;;;;;;;4.82;2.53;;;29.70;77.60;;;;;;4808187;29;20054;-85
2022/07/20 08:17:04;;;;;;;3.95;2.80;;;29.90;79.30;;;;;;4825717;29;20436;-85
2022/07/20 08:19:30;;;;;;;4.35;2.28;;;30.00;79.40;;;;;;4827011;29;20088;-87
2022/07/20 08:21:56;;;;;;;4.45;2.97;;;30.10;79.90;;;;;;4825844;29;20449;-84
2022/07/20 08:24:22;;;;;;;5.45;3.05;;;30.20;80.40;;;;;;4826858;29;20449;-85
2022/07/20 08:26:47;;;;;;;4.18;3.28;;;30.40;79.50;;;;;;4826482;29;20069;-85
2022/07/20 08:29:13;;;;;;;5.38;2.97;;;30.40;80.70;;;;;;4831437;29;20104;-86
2022/07/20 08:31:39;;;;;;;4.93;3.05;;;30.50;80.60;;;;;;4831982;29;20078;-84
2022/07/20 08:34:04;;;;;;;7.10;3.50;;;30.60;80.80;;;;;;4827675;29;20484;-86
2022/07/20 08:36:30;;;;;;;5.95;3.53;;;30.80;81.10;;;;;;4827098;29;20054;-85
2022/07/20 08:38:56;;;;;;;5.20;3.13;;;30.80;82.10;;;;;;4825114;29;20527;-84
2022/07/20 08:41:23;;;;;;;6.68;4.03;;;30.90;80.70;;;;;;4827232;29;20133;-87
2022/07/20 08:43:49;;;;;;;5.43;3.72;;;30.90;81.60;;;;;;4827143;29;20061;-85
2022/07/20 08:46:17;;;;;;;9.85;4.22;;;31.00;82.30;;;;;;4826462;29;20035;-87
2022/07/20 08:48:43;;;;;;;5.80;4.13;;;31.00;82.00;;;;;;4826792;29;20061;-89
2022/07/20 08:51:09;;;;;;;12.27;4.80;;;31.10;82.60;;;;;;4825711;29;20042;-87
2022/07/20 08:53:35;;;;;;;8.30;5.70;;;31.20;84.20;;;;;;4827024;29;20077;-88
2022/07/20 08:56:01;;;;;;;6.75;5.30;;;31.40;84.80;;;;;;4826809;29;20042;-87
2022/07/20 08:58:27;;;;;;;9.43;5.43;;;31.40;82.90;;;;;;4826642;29;20111;-89
2022/07/20 09:00:52;;;;;;;11.35;6.25;;;31.50;84.60;;;;;;4826549;29;20061;-88
2022/07/20 09:03:18;;;;;;;10.07;5.88;;;31.50;82.40;;;;;;4826341;29;20141;-90
2022/07/20 09:05:44;;;;;;;12.55;7.68;;;31.60;83.20;;;;;;4829674;29;20058;-90
2022/07/20 09:08:17;;;;;;;11.70;7.03;;;31.60;85.10;;;;;;4826921;29;20046;-87
2022/07/20 09:10:46;;;;;;;14.25;7.75;;;31.70;84.20;;;;;;4826383;29;20532;-88
2022/07/20 09:13:21;;;;;;;14.02;7.97;;;31.60;83.00;;;;;;4826516;29;20050;-90
2022/07/20 09:15:53;;;;;;;15.30;9.30;;;31.70;85.00;;;;;;4826839;29;20050;-88
2022/07/20 09:18:20;;;;;;;13.10;8.30;;;31.70;85.60;;;;;;4826490;29;20052;-88
2022/07/20 09:20:51;;;;;;;13.35;8.45;;;31.90;85.40;;;;;;4826459;29;20061;-90
2022/07/20 09:23:31;;;;;;;11.57;8.50;;;32.00;85.00;;;;;;4825273;29;20574;-91
2022/07/20 09:26:01;;;;;;;13.20;8.32;;;32.10;86.20;;;;;;4825942;29;20045;-92
2022/07/20 09:28:40;;;;;;;13.45;9.00;;;32.10;85.50;;;;;;4826433;29;20565;-90
2022/07/20 09:31:25;;;;;;;12.77;9.13;;;32.20;85.60;;;;;;4826300;29;20050;-91
2022/07/20 09:33:52;;;;;;;;;;;32.20;84.00;;;;;;4825752;29;20187;-90
2022/07/20 09:36:19;;;;;;;23.88;11.65;;;32.30;84.60;;;;;;4826587;29;20374;-90
2022/07/20 09:38:45;;;;;;;13.85;10.55;;;32.40;84.00;;;;;;4826989;29;20055;-89
2022/07/20 09:41:31;;;;;;;17.55;10.93;;;32.30;84.40;;;;;;4826550;29;20049;-91
2022/07/20 09:43:59;;;;;;;14.55;10.95;;;32.30;84.40;;;;;;4824883;29;20050;-89
2022/07/20 09:46:33;;;;;;;16.48;12.40;;;32.20;84.50;;;;;;4825065;29;20050;-87
2022/07/20 09:49:07;;;;;;;14.07;11.40;;;32.30;84.30;;;;;;4824909;29;20046;-87
2022/07/20 09:51:34;;;;;;;14.27;10.18;;;32.20;85.10;;;;;;4826121;29;20057;-89
2022/07/20 09:54:03;;;;;;;15.98;11.43;;;32.20;85.50;;;;;;4826357;29;20407;-92
2022/07/20 09:56:30;;;;;;;16.42;11.68;;;32.30;85.70;;;;;;4826061;29;20140;-93
2022/07/20 09:58:59;;;;;;;13.73;10.30;;;32.30;85.90;;;;;;4826346;29;20488;-90
2022/07/20 10:01:27;;;;;;;17.30;12.35;;;32.40;86.00;;;;;;4826314;29;20077;-91
2022/07/20 10:03:56;;;;;;;17.58;11.95;;;32.40;85.00;;;;;;4825990;29;20054;-90
2022/07/20 10:06:23;;;;;;;18.00;12.20;;;32.50;85.70;;;;;;4825778;29;20053;-89
2022/07/20 10:08:49;;;;;;;17.83;12.48;;;32.50;84.30;;;;;;4825949;29;20039;-92
2022/07/20 10:11:17;;;;;;;12.80;10.73;;;32.50;84.70;;;;;;4824450;29;20494;-91
2022/07/20 10:13:48;;;;;;;15.15;10.30;;;32.50;83.90;;;;;;4824496;29;20051;-89
2022/07/20 10:16:34;;;;;;;16.27;11.43;;;32.60;82.70;;;;;;4824870;29;20393;-92
2022/07/20 10:19:00;;;;;;;14.32;11.35;;;32.60;81.00;;;;;;4825784;29;20113;-93
2022/07/20 10:21:37;;;;;;;15.65;10.75;;;32.60;80.00;;;;;;4824601;29;20050;-92
2022/07/20 10:24:35;;;;;;;14.00;11.25;;;32.60;79.30;;;;;;4825414;29;20106;-93
2022/07/20 10:27:16;;;;;;;16.02;10.73;;;32.60;79.00;;;;;;4825619;29;20149;-89
2022/07/20 10:29:46;;;;;;;16.85;10.63;;;32.60;80.10;;;;;;4825143;29;20523;-91
2022/07/20 10:32:14;;;;;;;15.18;11.23;;;32.60;77.10;;;;;;4824080;29;20468;-92
2022/07/20 10:34:50;;;;;;;13.10;10.40;;;32.70;76.60;;;;;;4824503;29;20141;-84
2022/07/20 10:37:37;;;;;;;15.02;9.85;;;32.60;79.10;;;;;;4825509;29;20094;-90
2022/07/20 10:40:15;;;;;;;11.23;8.50;;;32.70;78.20;;;;;;4825768;29;20136;-92
2022/07/20 10:42:47;;;;;;;13.52;9.88;;;32.80;78.30;;;;;;4825298;29;20054;-89
2022/07/20 10:45:19;;;;;;;12.30;8.13;;;32.80;76.80;;;;;;4825331;29;20067;-90
2022/07/20 10:47:50;;;;;;;10.77;8.05;;;32.90;76.00;;;;;;4824965;29;20058;-89
2022/07/20 10:50:36;;;;;;;10.93;7.70;;;33.00;74.30;;;;;;4808731;29;20054;-90
2022/07/20 10:53:11;;;;;;;11.13;7.38;;;32.90;72.80;;;;;;4825174;29;20046;-91
2022/07/20 10:55:37;;;;;;;10.20;6.93;;;32.80;74.00;;;;;;4825159;29;20398;-91
2022/07/20 10:58:11;;;;;;;9.85;7.40;;;32.90;74.50;;;;;;4824917;29;20061;-94
2022/07/20 11:00:40;;;;;;;10.48;7.15;;;32.90;74.00;;;;;;4823960;29;20114;-88
2022/07/20 11:03:19;;;;;;;11.40;8.18;;;32.90;73.80;;;;;;4824334;29;20534;-90
2022/07/20 11:05:46;;;;;;;11.98;7.43;;;33.00;72.20;;;;;;4824667;29;20106;-90
2022/07/20 11:08:12;;;;;;;8.75;6.72;;;33.00;74.80;;;;;;4823233;29;20042;-89
2022/07/20 11:10:40;;;;;;;8.13;6.63;;;33.00;72.40;;;;;;4824892;29;20400;-90
2022/07/20 11:13:09;;;;;;;7.38;6.50;;;33.20;69.60;;;;;;4823311;29;20057;-91
2022/07/20 11:15:45;;;;;;;9.15;5.85;;;33.30;70.00;;;;;;4823746;29;20392;-92
2022/07/20 11:18:16;;;;;;;8.27;6.22;;;33.10;71.10;;;;;;4823640;29;20050;-93
2022/07/20 11:20:47;;;;;;;6.60;5.78;;;33.10;70.40;;;;;;4824702;29;20133;-89
2022/07/20 11:23:13;;;;;;;9.20;6.10;;;33.10;70.70;;;;;;4824763;29;20050;-89
2022/07/20 11:25:54;;;;;;;10.98;6.53;;;33.20;70.90;;;;;;4824595;29;20048;-83
2022/07/20 11:28:42;;;;;;;11.45;7.05;;;33.30;71.10;;;;;;4823950;29;20488;-86
2022/07/20 11:31:08;;;;;;;12.50;6.63;;;33.50;67.70;;;;;;4782570;29;20141;-87
2022/07/20 11:33:37;;;;;;;11.35;7.30;;;33.40;69.80;;;;;;4799066;29;20505;-83
2022/07/20 11:36:20;;;;;;;8.35;6.95;;;33.40;69.70;;;;;;4797812;29;20055;-85
2022/07/20 11:38:47;;;;;;;10.60;6.72;;;33.50;69.30;;;;;;4795919;29;20050;-91
2022/07/20 11:41:21;;;;;;;8.88;6.47;;;33.60;66.80;;;;;;4806605;29;20054;-84
2022/07/20 11:43:50;;;;;;;10.95;6.55;;;33.60;67.40;;;;;;4802771;29;20448;-84
2022/07/20 11:46:27;;;;;;;7.25;6.45;;;33.50;69.70;;;;;;4802908;29;20477;-88
2022/07/20 11:49:01;;;;;;;8.55;6.30;;;33.40;69.50;;;;;;4783800;29;20059;-85
2022/07/20 11:51:28;;;;;;;11.60;6.70;;;33.40;69.30;;;;;;4788490;29;20389;-86
2022/07/20 11:53:54;;;;;;;10.35;6.25;;;33.50;70.40;;;;;;4800549;29;20055;-89
2022/07/20 11:56:24;;;;;;;12.35;5.97;;;33.60;70.40;;;;;;4796915;29;20541;-91
2022/07/20 11:58:51;;;;;;;9.48;5.75;;;33.70;70.70;;;;;;4783746;30;20051;-91
2022/07/20 12:01:29;;;;;;;8.20;5.85;;;33.70;69.80;;;;;;4799780;29;20074;-93
2022/07/20 12:03:56;;;;;;;8.82;5.85;;;33.70;70.50;;;;;;4797207;29;20414;-84
2022/07/20 12:06:24;;;;;;;9.65;7.10;;;33.80;72.10;;;;;;4797892;29;20055;-85
2022/07/20 12:09:12;;;;;;;11.43;5.65;;;33.90;69.50;;;;;;4843218;29;20065;-83
2022/07/20 12:11:56;;;;;;;8.75;6.15;;;33.90;71.20;;;;;;4825923;29;20050;-84
2022/07/20 12:14:42;;;;;;;7.78;5.55;;;33.90;69.00;;;;;;4834229;29;20138;-85
2022/07/20 12:17:15;;;;;;;6.43;4.88;;;33.90;67.90;;;;;;4824281;29;20075;-86
2022/07/20 12:19:45;;;;;;;6.47;4.53;;;34.00;66.70;;;;;;4824474;29;20103;-85
2022/07/20 12:22:26;;;;;;;9.25;5.18;;;34.00;68.70;;;;;;4823332;29;20093;-84
2022/07/20 12:24:59;;;;;;;8.23;4.93;;;34.00;68.80;;;;;;4833233;29;20051;-86
2022/07/20 12:27:31;;;;;;;8.13;4.55;;;34.10;69.50;;;;;;4833878;29;20121;-87
2022/07/20 12:29:59;;;;;;;8.60;4.78;;;34.10;69.20;;;;;;4824335;29;20095;-86
2022/07/20 12:32:33;;;;;;;6.28;4.78;;;34.10;69.60;;;;;;4823869;29;20373;-85
2022/07/20 12:35:06;;;;;;;8.80;4.60;;;34.40;67.10;;;;;;4825138;29;20054;-84
2022/07/20 12:37:54;;;;;;;7.93;4.75;;;34.40;68.80;;;;;;4826481;29;20090;-87
2022/07/20 12:40:48;;;;;;;5.97;3.78;;;34.50;69.30;;;;;;4829184;29;20050;-85
2022/07/20 12:43:31;;;;;;;7.23;3.90;;;34.60;69.90;;;;;;4827046;29;20065;-85
2022/07/20 12:46:00;;;;;;;5.28;3.75;;;34.70;68.10;;;;;;4824182;29;20299;-86
2022/07/20 12:48:26;;;;;;;8.18;3.58;;;34.80;68.80;;;;;;4825857;29;20057;-87
2022/07/20 12:50:52;;;;;;;5.45;3.85;;;34.80;65.90;;;;;;4824152;29;20034;-84
2022/07/20 12:53:18;;;;;;;5.93;3.70;;;34.80;66.50;;;;;;4826567;29;20061;-84